createdAt,value
2023-01-02T00:01:28.804Z,19.67
2023-01-02T00:06:33.344Z,20.30
2023-01-02T00:11:34.600Z,21.97
2023-01-02T00:16:35.861Z,19.88
2023-01-02T00:21:37.146Z,22.87
2023-01-02T00:26:38.676Z,23.90
2023-01-02T00:31:40.171Z,22.35
2023-01-02T00:36:41.500Z,19.83
2023-01-02T00:41:42.829Z,23.25
2023-01-02T00:46:44.181Z,22.03
2023-01-02T00:51:45.496Z,20.40
2023-01-02T00:56:46.883Z,21.30
2023-01-02T01:01:48.296Z,18.90
2023-01-02T01:06:49.706Z,23.15
2023-01-02T01:11:50.937Z,22.37
2023-01-02T01:16:52.177Z,20.55
2023-01-02T01:21:53.398Z,21.38
2023-01-02T01:26:54.678Z,18.10
2023-01-02T01:31:56.058Z,15.73
2023-01-02T01:36:57.342Z,18.83
2023-01-02T01:41:59.149Z,17.17
2023-01-02T01:47:00.521Z,17.52
2023-01-02T01:52:08.731Z,20.13
2023-01-02T01:57:17.755Z,18.15
2023-01-02T02:02:19.806Z,18.97
2023-01-02T02:07:21.409Z,21.58
2023-01-02T02:12:27.820Z,17.60
2023-01-02T02:18:08.140Z,17.13
2023-01-02T02:23:18.373Z,16.00
2023-01-02T02:28:38.219Z,17.33
2023-01-02T02:33:44.668Z,18.40
2023-01-02T02:39:04.836Z,19.02
2023-01-02T02:44:24.433Z,18.47
2023-01-02T02:49:25.649Z,16.48
2023-01-02T02:54:31.322Z,15.77
2023-01-02T02:59:33.620Z,18.95
2023-01-02T03:04:34.936Z,15.77
2023-01-02T03:09:55.152Z,19.17
2023-01-02T03:14:58.793Z,14.23
2023-01-02T03:20:12.415Z,18.20
2023-01-02T03:25:14.762Z,15.13
2023-01-02T03:30:20.487Z,17.10
2023-01-02T03:35:24.745Z,16.43
2023-01-02T03:40:26.782Z,15.82
2023-01-02T03:45:30.903Z,13.87
2023-01-02T03:51:01.367Z,15.40
2023-01-02T03:56:17.904Z,13.60
2023-01-02T04:01:27.214Z,19.03
2023-01-02T04:06:31.723Z,14.00
2023-01-02T04:11:33.909Z,15.97
2023-01-02T04:16:36.523Z,16.67
2023-01-02T04:21:39.953Z,15.93
2023-01-02T04:26:44.259Z,16.90
2023-01-02T04:31:56.666Z,14.70
2023-01-02T04:36:57.986Z,13.83
2023-01-02T04:41:59.246Z,17.27
2023-01-02T04:47:00.538Z,12.48
2023-01-02T04:52:01.770Z,13.97
2023-01-02T04:57:03.012Z,12.50
2023-01-02T05:02:04.332Z,13.83
2023-01-02T05:07:05.719Z,15.00
2023-01-02T05:12:06.981Z,15.82
2023-01-02T05:17:08.252Z,16.53
2023-01-02T05:22:31.394Z,15.85
2023-01-02T05:27:32.690Z,15.73
2023-01-02T05:32:34.010Z,12.38
2023-01-02T05:37:35.342Z,17.50
2023-01-02T05:42:36.674Z,13.30
2023-01-02T05:47:37.937Z,17.80
2023-01-02T05:52:45.066Z,16.43
2023-01-02T05:57:47.163Z,13.60
2023-01-02T06:02:48.884Z,17.67
2023-01-02T06:07:50.269Z,12.63
2023-01-02T06:12:51.516Z,15.20
2023-01-02T06:17:52.875Z,16.00
2023-01-02T06:22:55.151Z,18.38
2023-01-02T06:27:56.378Z,12.77
2023-01-02T06:32:57.655Z,11.73
2023-01-02T06:37:58.936Z,13.25
2023-01-02T06:43:00.508Z,11.40
2023-01-02T06:48:01.853Z,14.30
2023-01-02T06:53:03.149Z,16.85
2023-01-02T06:58:10.039Z,13.03
2023-01-02T07:03:13.652Z,13.60
2023-01-02T07:08:14.957Z,12.30
2023-01-02T07:13:16.251Z,12.50
2023-01-02T07:18:17.518Z,15.55
2023-01-02T07:23:18.812Z,9.33
2023-01-02T07:28:20.087Z,10.18
2023-01-02T07:33:21.456Z,12.83
2023-01-02T07:38:22.756Z,12.27
2023-01-02T07:43:24.982Z,11.15
2023-01-02T07:48:26.223Z,10.47
2023-01-02T07:53:27.497Z,12.23
2023-01-02T07:58:29.071Z,14.30
2023-01-02T08:03:31.120Z,12.48
2023-01-02T08:08:32.649Z,13.27
2023-01-02T08:13:34.027Z,11.10
2023-01-02T08:18:35.590Z,15.38
2023-01-02T08:23:37.466Z,9.10
2023-01-02T08:28:39.727Z,11.82
2023-01-02T08:33:41.112Z,24.73
2023-01-02T08:38:42.673Z,13.07
2023-01-02T08:43:43.952Z,12.00
2023-01-02T08:48:45.235Z,14.77
2023-01-02T08:53:46.546Z,17.13
2023-01-02T08:58:52.860Z,14.63
2023-01-02T09:03:55.171Z,12.57
2023-01-02T09:08:57.225Z,18.35
2023-01-02T09:14:00.027Z,17.63
2023-01-02T09:19:01.965Z,17.95
2023-01-02T09:24:03.464Z,12.13
2023-01-02T09:29:04.855Z,14.43
2023-01-02T09:34:06.261Z,16.45
2023-01-02T09:39:07.659Z,11.47
2023-01-02T09:44:27.700Z,10.35
2023-01-02T09:49:31.191Z,11.73
2023-01-02T09:54:34.013Z,9.63
2023-01-02T10:00:01.764Z,8.52
2023-01-02T10:05:13.300Z,7.20
2023-01-02T10:10:34.953Z,9.77
2023-01-02T10:15:36.881Z,9.75
2023-01-02T10:20:40.320Z,16.57
2023-01-02T10:25:54.161Z,6.50
2023-01-02T10:31:11.018Z,9.80
2023-01-02T10:36:20.449Z,8.70
2023-01-02T10:41:21.775Z,9.98
2023-01-02T10:46:23.139Z,8.97
2023-01-02T10:51:24.496Z,31.17
2023-01-02T10:56:25.857Z,11.73
2023-01-02T11:01:27.358Z,8.47
2023-01-02T11:06:38.870Z,10.63
2023-01-02T11:11:48.279Z,9.82
2023-01-02T11:16:50.207Z,12.20
2023-01-02T11:21:52.431Z,10.77
2023-01-02T11:26:54.380Z,10.63
2023-01-02T11:31:58.572Z,11.17
2023-01-02T11:37:06.690Z,16.73
2023-01-02T11:42:26.869Z,13.43
2023-01-02T11:47:36.813Z,10.30
2023-01-02T11:52:54.369Z,12.30
2023-01-02T11:58:06.938Z,12.38
2023-01-02T12:03:18.847Z,12.17
2023-01-02T12:08:44.794Z,15.40
2023-01-02T12:14:09.919Z,14.15
2023-01-02T12:19:16.937Z,8.67
2023-01-02T12:24:31.933Z,16.77
2023-01-02T12:29:52.129Z,17.70
2023-01-02T12:35:11.938Z,10.00
2023-01-02T12:40:24.123Z,8.57
2023-01-02T12:45:28.641Z,9.27
2023-01-02T12:50:40.619Z,15.53
2023-01-02T12:55:54.829Z,11.30
2023-01-02T13:01:19.352Z,13.07
2023-01-02T13:06:45.405Z,17.30
2023-01-02T13:11:48.570Z,10.85
2023-01-02T13:17:01.438Z,9.30
2023-01-02T13:22:23.206Z,12.90
2023-01-02T13:27:24.667Z,11.25
2023-01-02T13:32:27.710Z,10.95
2023-01-02T13:37:29.664Z,8.53
2023-01-02T13:42:49.748Z,11.48
2023-01-02T13:47:53.119Z,10.37
2023-01-02T13:53:03.665Z,10.20
2023-01-02T13:58:20.303Z,10.85
2023-01-02T14:03:21.744Z,9.50
2023-01-02T14:08:29.061Z,11.07
2023-01-02T14:13:37.154Z,18.83
2023-01-02T14:18:44.279Z,12.33
2023-01-02T14:24:16.219Z,13.47
2023-01-02T14:29:15.813Z,10.82
2023-01-02T14:34:22.904Z,11.87
2023-01-02T14:39:25.838Z,19.50
2023-01-02T14:44:27.095Z,21.88
2023-01-02T14:49:29.282Z,16.43
2023-01-02T14:54:33.640Z,11.25
2023-01-02T14:59:38.124Z,13.50
2023-01-02T15:04:43.369Z,12.88
2023-01-02T15:09:50.186Z,17.17
2023-01-02T15:14:52.592Z,17.33
2023-01-02T15:19:53.947Z,11.93
2023-01-02T15:24:55.251Z,13.93
2023-01-02T15:29:58.075Z,17.33
2023-01-02T15:35:13.153Z,18.67
2023-01-02T15:40:20.988Z,13.93
2023-01-02T15:45:22.296Z,15.77
2023-01-02T15:50:25.015Z,17.77
2023-01-02T15:55:28.187Z,13.57
2023-01-02T16:00:33.745Z,15.32
2023-01-02T16:05:49.597Z,13.77
2023-01-02T16:11:00.866Z,15.93
2023-01-02T16:16:15.795Z,12.47
2023-01-02T16:21:18.552Z,10.48
2023-01-02T16:26:20.934Z,15.25
2023-01-02T16:31:22.865Z,9.20
2023-01-02T16:36:28.951Z,7.75
2023-01-02T16:41:37.260Z,10.53
2023-01-02T16:46:39.121Z,10.10
2023-01-02T16:51:42.792Z,11.82
2023-01-02T16:56:44.249Z,14.10
2023-01-02T17:01:45.650Z,9.98
2023-01-02T17:06:47.180Z,10.00
2023-01-02T17:12:00.877Z,6.05
2023-01-02T17:17:02.202Z,5.88
2023-01-02T17:22:03.461Z,7.53
2023-01-02T17:27:04.765Z,6.95
2023-01-02T17:32:06.119Z,9.20
2023-01-02T17:37:07.424Z,7.57
2023-01-02T17:42:11.405Z,6.25
2023-01-02T17:52:38.055Z,6.72
2023-01-02T17:57:40.242Z,5.57
2023-01-02T18:02:41.984Z,6.18
2023-01-02T18:07:43.358Z,3.53
2023-01-02T18:12:44.621Z,4.57
2023-01-02T18:17:46.005Z,6.65
2023-01-02T18:22:49.983Z,6.87
2023-01-02T18:27:55.228Z,4.40
2023-01-02T18:33:15.672Z,7.38
2023-01-02T18:38:19.321Z,4.87
2023-01-02T18:43:28.056Z,4.90
2023-01-02T18:48:29.996Z,4.00
2023-01-02T18:53:35.906Z,4.63
2023-01-02T18:58:43.269Z,4.25
2023-01-02T19:03:46.582Z,4.80
2023-01-02T19:08:47.884Z,3.92
2023-01-02T19:13:52.608Z,4.17
2023-01-02T19:18:58.119Z,5.38
2023-01-02T19:24:09.751Z,4.90
2023-01-02T19:29:13.757Z,5.87
2023-01-02T19:34:24.244Z,4.30
2023-01-02T19:39:26.907Z,5.53
2023-01-02T19:44:28.223Z,6.22
2023-01-02T19:49:29.497Z,5.18
2023-01-02T19:54:30.890Z,4.93
2023-01-02T19:59:32.153Z,5.35
2023-01-02T20:04:33.441Z,4.90
2023-01-02T20:09:34.743Z,4.88
2023-01-02T20:14:36.064Z,5.57
2023-01-02T20:19:37.524Z,5.30
2023-01-02T20:24:38.855Z,6.80
2023-01-02T20:29:40.126Z,6.80
2023-01-02T20:34:41.432Z,5.55
2023-01-02T20:39:42.751Z,4.93
2023-01-02T20:44:44.135Z,6.30
2023-01-02T20:49:45.621Z,6.22
2023-01-02T20:54:47.000Z,5.90
2023-01-02T20:59:48.305Z,6.03
2023-01-02T21:04:49.698Z,5.30
2023-01-02T21:09:51.791Z,5.13
2023-01-02T21:14:53.151Z,4.68
2023-01-02T21:19:54.486Z,5.90
2023-01-02T21:24:55.878Z,5.20
2023-01-02T21:29:57.185Z,5.40
2023-01-02T21:34:58.496Z,5.03
2023-01-02T21:39:59.937Z,5.68
2023-01-02T21:45:01.322Z,5.13
2023-01-02T21:50:02.704Z,6.05
2023-01-02T21:55:04.297Z,5.72
2023-01-02T22:00:06.077Z,4.63
2023-01-02T22:05:07.811Z,4.80
2023-01-02T22:10:09.680Z,5.80
2023-01-02T22:15:11.761Z,3.85
2023-01-02T22:20:13.060Z,4.57
2023-01-02T22:25:14.362Z,6.20
2023-01-02T22:30:22.040Z,3.95
2023-01-02T22:35:25.906Z,4.50
2023-01-02T22:40:28.067Z,4.32
2023-01-02T22:45:31.775Z,4.32
2023-01-02T22:50:39.800Z,4.40
2023-01-02T22:55:41.219Z,4.00
2023-01-02T23:00:42.663Z,5.27
2023-01-02T23:05:44.157Z,4.25
2023-01-02T23:10:45.481Z,5.13
2023-01-02T23:16:05.341Z,4.07
2023-01-02T23:21:09.972Z,4.40
2023-01-02T23:26:13.248Z,4.97
2023-01-02T23:31:14.625Z,5.03
2023-01-02T23:36:15.896Z,4.07
2023-01-02T23:41:17.352Z,3.90
2023-01-02T23:46:18.744Z,5.28
2023-01-02T23:51:20.208Z,4.40
2023-01-02T23:56:22.827Z,4.93
